N38LP TJIG-TJIG
Flight info
| Callsign | N38LP |
|---|---|
| Flight time | N/A |
| Altitude | 6000 |
| Route | VFR AROUND THE ISLAND |
| Aircraft | PC12/L-SDGRY/S |
Departure
| Time | 2026-04-22 20:37 |
|---|---|
| Airport | Fernando Luis Ribas Dominicci Airport (TJIG) |
Arrival
| Time | N/A |
|---|---|
| Airport | Fernando Luis Ribas Dominicci Airport (TJIG) |
| Time | Latitude | Longitude | Altitude | Speed | Heading |
|---|---|---|---|---|---|
| 2026-04-22 20:23 | 18.45557 | -66.10224 | 15 ft | 0 kts | 81° |
| 2026-04-22 20:34 | 18.45578 | -66.10236 | 15 ft | 12 kts | 270° |
| 2026-04-22 20:34 | 18.45564 | -66.10346 | 14 ft | 9 kts | 263° |
| 2026-04-22 20:35 | 18.45551 | -66.10445 | 14 ft | 21 kts | 263° |
| 2026-04-22 20:35 | 18.45545 | -66.10555 | 14 ft | 10 kts | 306° |
| 2026-04-22 20:35 | 18.45550 | -66.10560 | 14 ft | 0 kts | 330° |
| 2026-04-22 20:35 | 18.45551 | -66.10560 | 14 ft | 1 kts | 330° |
| 2026-04-22 20:36 | 18.45597 | -66.10542 | 13 ft | 14 kts | 81° |
| 2026-04-22 20:36 | 18.45630 | -66.10258 | 14 ft | 71 kts | 83° |
| 2026-04-22 20:36 | 18.45709 | -66.09582 | 109 ft | 108 kts | 82° |
| 2026-04-22 20:36 | 18.45828 | -66.08803 | 570 ft | 101 kts | 78° |
| 2026-04-22 20:37 | 18.46031 | -66.08085 | 1013 ft | 112 kts | 66° |
| 2026-04-22 20:37 | 18.46353 | -66.07285 | 1514 ft | 115 kts | 54° |
| 2026-04-22 20:37 | 18.47020 | -66.06842 | 2088 ft | 125 kts | 16° |
| 2026-04-22 20:37 | 18.47906 | -66.06713 | 2643 ft | 129 kts | 5° |
| 2026-04-22 20:38 | 18.48789 | -66.06809 | 3324 ft | 129 kts | 346° |
| 2026-04-22 20:38 | 18.49634 | -66.07252 | 3835 ft | 145 kts | 324° |
| 2026-04-22 20:38 | 18.50312 | -66.08104 | 4282 ft | 162 kts | 300° |
| 2026-04-22 20:38 | 18.50679 | -66.09274 | 4669 ft | 169 kts | 278° |
| 2026-04-22 20:39 | 18.50626 | -66.10449 | 4998 ft | 161 kts | 255° |
| 2026-04-22 20:39 | 18.50139 | -66.11527 | 5345 ft | 171 kts | 233° |
| 2026-04-22 20:39 | 18.49548 | -66.12562 | 5684 ft | 162 kts | 262° |
| 2026-04-22 20:39 | 18.49757 | -66.13704 | 5973 ft | 165 kts | 286° |
| 2026-04-22 20:40 | 18.50127 | -66.14953 | 6015 ft | 190 kts | 286° |
| 2026-04-22 20:40 | 18.50537 | -66.16349 | 6016 ft | 208 kts | 286° |
| 2026-04-22 20:40 | 18.50976 | -66.17854 | 6014 ft | 219 kts | 286° |
| 2026-04-22 20:40 | 18.51274 | -66.19439 | 6024 ft | 222 kts | 276° |
| 2026-04-22 20:41 | 18.51425 | -66.21020 | 6177 ft | 218 kts | 275° |
| 2026-04-22 20:41 | 18.51564 | -66.22606 | 6446 ft | 216 kts | 274° |
| 2026-04-22 20:41 | 18.51710 | -66.24191 | 6753 ft | 219 kts | 274° |
| 2026-04-22 20:41 | 18.51857 | -66.25798 | 7061 ft | 222 kts | 274° |
| 2026-04-22 20:42 | 18.52005 | -66.27427 | 7373 ft | 224 kts | 275° |
| 2026-04-22 20:42 | 18.52146 | -66.29069 | 7687 ft | 226 kts | 274° |
| 2026-04-22 20:42 | 18.52282 | -66.30726 | 7965 ft | 229 kts | 274° |
| 2026-04-22 20:42 | 18.52420 | -66.32421 | 8004 ft | 233 kts | 274° |
| 2026-04-22 20:43 | 18.52560 | -66.34096 | 8003 ft | 227 kts | 274° |
| 2026-04-22 20:43 | 18.52699 | -66.35748 | 8002 ft | 225 kts | 274° |
| 2026-04-22 20:43 | 18.52840 | -66.37369 | 8003 ft | 225 kts | 274° |
| 2026-04-22 20:43 | 18.52980 | -66.39012 | 8001 ft | 226 kts | 274° |
| 2026-04-22 20:44 | 18.53119 | -66.40667 | 8002 ft | 227 kts | 274° |
| 2026-04-22 20:44 | 18.53262 | -66.42321 | 8003 ft | 227 kts | 274° |
| 2026-04-22 20:44 | 18.53408 | -66.43976 | 8004 ft | 227 kts | 275° |
| 2026-04-22 20:44 | 18.53551 | -66.45631 | 8005 ft | 227 kts | 274° |
| 2026-04-22 20:45 | 18.53692 | -66.47286 | 8006 ft | 227 kts | 274° |
| 2026-04-22 20:45 | 18.53837 | -66.48941 | 8007 ft | 227 kts | 274° |
| 2026-04-22 20:45 | 18.53978 | -66.50574 | 8006 ft | 227 kts | 275° |
| 2026-04-22 20:45 | 18.54117 | -66.52232 | 8004 ft | 227 kts | 274° |
| 2026-04-22 20:46 | 18.54404 | -66.55540 | 8004 ft | 227 kts | 275° |
| 2026-04-22 20:46 | 18.54545 | -66.57195 | 8007 ft | 227 kts | 275° |